Ullared, Sweden

12:12 PM CEST on April 24, 2017 (GMT +0200)
GRÖNABÄCK | | Change Station

Elev 0 ft 57.23 °N, 12.75 °E | Updated 1 minute ago

Rain
Rain
42.6 °F
Feels Like 39 °F
N
6.2
Wind Variable Wind from SSW
Gusts 12.4 mph

Today
High -- | Low -- °F
--% Chance of Precip.
Yesterday
High -- | Low -- °F
Precip. -- in
Pressure 29.56 in
Visibility 4.3 miles
Clouds Few 1000 ft
Mostly Cloudy 1200 ft
Windchill 39 °F
Dew Point 42 °F
Humidity 96%
Rainfall 0.38 in
Snow Depth Not available.
5:37 AM 8:38 PM
Waning Crescent, 6% visible
METAR ESMT 240950Z 21024KT 7000 -RA FEW010 BKN012 07/05 Q1001
Pressure 29.56 in
Visibility 4.3 miles
Clouds Few 1000 ft
Mostly Cloudy 1200 ft
Windchill 39 °F
Dew Point 42 °F
Humidity 96%
Rainfall 0.38 in
Snow Depth Not available.
5:37 AM 8:38 PM
Waning Crescent, 6% visible
METAR ESMT 240950Z 21024KT 7000 -RA FEW010 BKN012 07/05 Q1001

Get Severe Weather Alerts

Thanks for signing up!

Be on the lookout for a verification email in your inbox.

You'll start receiving the daily forecast at 8 AM.

×

10-Day Weather Forecast

×

Almanac

Astronomy

Apr. 24, 2017 Rise Set
Actual Time
Civil Twilight
Nautical Twilight
Astronomical Twilight
Moon
Length of Visible Light
Length of Day
Tomorrow will be .
, % of the Moon is Illuminated

Today's Extremes

Country Highs Country Lows

Community

WunderPhotos

WunderBlog® & News

Nearby

Air Quality

  Air Quality AQ Index Pollutant
Not available.

Snow Depth

Station Depth Elevation

Earthquake Activity

City Distance Mag. Time & Date
Minimum magnitude displayed is 2.5.

Coastal Water Temperatures

Place Temperature

Stations

Nearby Weather Stations

Station Location Temp. Windchill Dew Point Humidity Wind Precip. Elev Updated Type